Flight Track Log - Related Links

Times and Time Zones

All times are in EDT time to prevent confusion due to time zone crossing. See the N301HC flight status page for this flight to view local times or setup timezone preferences in your user account.

Time Position Orientation Groundspeed Altitude Reporting Facility
EDT Latitude Longitude Course Direction KTS MPH feet Rate Location/Type
Thu 02:34:30 AM 39.4833 -119.7667 132° Southeast 1 1 5,200  Level Northern TRACON
Thu 02:35:30 AM 39.5500 -119.7500 11° North 149 171 6,300 1,158 Climbing Northern TRACON
Thu 02:36:24 AM 39.5833 -119.7333 21° North 174 200 7,400 1,543 Climbing Northern TRACON
Thu 02:38:25 AM 39.5700 -119.6617 104° East 189 217 10,800 1,624 Climbing Oakland Center
Thu 02:39:00 AM 39.2412 -119.3953 132° Southeast  Level Estimated
Thu 02:39:25 AM 39.5239 -119.6322 154° Southeast 195 224 12,300  Level Oakland Center
Thu 02:40:26 AM 39.4886 -119.5839 133° Southeast 188 216 13,900 1,587 Climbing Oakland Center
Thu 02:41:26 AM 39.4528 -119.5383 136° Southeast 184 212 15,500 1,488 Climbing Oakland Center
Thu 02:42:27 AM 39.4175 -119.4947 136° Southeast 177 204 16,900 1,279 Climbing Oakland Center
Thu 02:43:28 AM 39.3806 -119.4544 140° Southeast 175 201 18,100 1,240 Climbing Oakland Center
Thu 02:44:28 AM 39.3433 -119.4119 139° Southeast 178 205 19,400 1,140 Climbing Oakland Center
Thu 02:45:29 AM 39.3036 -119.3678 139° Southeast 185 213 20,400 1,140 Climbing Oakland Center
Thu 02:46:29 AM 39.2622 -119.3222 140° Southeast 194 223 21,700 1,240 Climbing Oakland Center
Thu 02:47:30 AM 39.2211 -119.2778 140° Southeast 193 222 22,900 1,180 Climbing Oakland Center
Thu 02:48:31 AM 39.1814 -119.2353 140° Southeast 188 216 24,100 992 Climbing Oakland Center
Thu 02:49:31 AM 39.1431 -119.1933 140° Southeast 183 211 24,900 446 Climbing Oakland Center
Thu 02:50:32 AM 39.0883 -119.1344 140° Southeast 215 247 25,000 50 Climbing Oakland Center
Thu 02:51:32 AM 39.0364 -119.0781 140° Southeast 240 276 25,000  Level Oakland Center
Thu 02:52:33 AM 38.9844 -119.0206 139° Southeast 247 284 25,000  Level Oakland Center
Thu 02:53:33 AM 38.9322 -118.9642 140° Southeast 247 284 25,000  Level Oakland Center
Thu 02:54:34 AM 38.8806 -118.9100 141° Southeast 242 278 25,000  Level Oakland Center
Thu 02:55:34 AM 38.8289 -118.8525 139° Southeast 247 284 25,000  Level Oakland Center
Thu 02:56:35 AM 38.7772 -118.7972 140° Southeast 245 282 25,000  Level Oakland Center
Thu 02:57:35 AM 38.7256 -118.7414 140° Southeast 245 282 25,000  Level Oakland Center
Thu 02:58:36 AM 38.6722 -118.6856 141° Southeast 248 285 25,000  Level Oakland Center
Thu 02:59:36 AM 38.6206 -118.6275 139° Southeast 249 287 25,000  Level Oakland Center
Thu 03:00:37 AM 38.5672 -118.5719 141° Southeast 247 284 25,000  Level Oakland Center
Thu 03:01:37 AM 38.5161 -118.5169 140° Southeast 243 280 25,000  Level Oakland Center
Thu 03:02:38 AM 38.4633 -118.4619 141° Southeast 244 281 25,000  Level Oakland Center
Thu 03:03:38 AM 38.4114 -118.4061 140° Southeast 245 282 25,000  Level Oakland Center
Thu 03:04:39 AM 38.3600 -118.3519 140° Southeast 242 278 25,000  Level Oakland Center
Thu 03:05:39 AM 38.3078 -118.2953 140° Southeast 246 283 25,000  Level Oakland Center
Thu 03:06:40 AM 38.2550 -118.2403 141° Southeast 246 283 25,000  Level Oakland Center
Thu 03:07:40 AM 38.2036 -118.1861 140° Southeast 242 278 25,000  Level Oakland Center
Thu 03:08:41 AM 38.1508 -118.1325 141° Southeast 243 280 25,000  Level Oakland Center
Thu 03:09:41 AM 38.0931 -118.0703 140° Southeast 239 275 25,000  Level Oakland Center
Thu 03:10:41 AM 38.0403 -118.0150 140° Southeast 244 281 25,000  Level Oakland Center
Thu 03:11:42 AM 37.9883 -117.9606 140° Southeast 244 281 25,000  Level Oakland Center
Thu 03:12:42 AM 37.9364 -117.9061 140° Southeast 245 282 25,000  Level Oakland Center
Thu 03:13:43 AM 37.8833 -117.8511 141° Southeast 247 284 25,000  Level Oakland Center
Thu 03:14:43 AM 37.8314 -117.7969 141° Southeast 244 281 25,000  Level Oakland Center
Thu 03:15:43 AM 37.7792 -117.7419 140° Southeast 245 282 25,000  Level Oakland Center
Thu 03:16:44 AM 37.7267 -117.6892 142° Southeast 244 281 25,000  Level Oakland Center
Thu 03:17:44 AM 37.6739 -117.6333 140° Southeast 247 284 25,000  Level Oakland Center
Thu 03:18:44 AM 37.6197 -117.5792 142° Southeast 248 285 25,000  Level Oakland Center
Thu 03:19:45 AM 37.5675 -117.5242 140° Southeast 247 284 25,000  Level Oakland Center
Thu 03:20:45 AM 37.5147 -117.4694 141° Southeast 247 284 25,000  Level Oakland Center
Thu 03:21:46 AM 37.4619 -117.4158 141° Southeast 245 282 25,000  Level Oakland Center
Thu 03:22:46 AM 37.4086 -117.3625 142° Southeast 246 283 25,000  Level Oakland Center
Thu 03:23:46 AM 37.3561 -117.3097 141° Southeast 244 281 25,000  Level Oakland Center
Thu 03:24:47 AM 37.3044 -117.2558 140° Southeast 242 278 25,000  Level Oakland Center
Thu 03:25:47 AM 37.2506 -117.2011 141° Southeast 245 282 25,000  Level Oakland Center
Thu 03:26:47 AM 37.1969 -117.1458 141° Southeast 247 284 25,000  Level Oakland Center
Thu 03:27:48 AM 37.1419 -117.0917 142° Southeast 249 287 25,000 -198 Level Oakland Center
Thu 03:28:48 AM 37.0881 -117.0372 141° Southeast 249 287 24,600 -750 Descending Oakland Center
Thu 03:29:48 AM 37.0292 -116.9789 142° Southeast 257 296 23,500 -1,091 Descending Oakland Center
Thu 03:30:49 AM 36.9669 -116.9164 141° Southeast 272 313 22,400 -1,099 Descending Oakland Center
Thu 03:31:59 AM 36.8900 -116.8378 141° Southeast 291 335 21,100 -641 Descending Los Center
Thu 03:33:00 AM 36.8294 -116.7750 140° Southeast 283 326 21,000 -50 Descending Los Center
Thu 03:34:00 AM 36.7758 -116.7131 137° Southeast 264 304 21,000  Level Los Center
Thu 03:35:01 AM 36.7294 -116.6436 130° Southeast 259 298 21,000  Level Los Center
Thu 03:36:01 AM 36.6814 -116.5767 132° Southeast 259 298 21,000  Level Los Center
Thu 03:37:01 AM 36.6356 -116.5111 131° Southeast 253 291 21,000  Level Los Center
Thu 03:38:02 AM 36.5889 -116.4444 131° Southeast 254 292 21,000  Level Los Center
Thu 03:39:02 AM 36.5414 -116.3775 131° Southeast 255 293 21,000 -50 Level Los Center
Thu 03:40:02 AM 36.4931 -116.3094 131° Southeast 254 292 20,900 -595 Descending Los Center
Thu 03:41:03 AM 36.4436 -116.2394 131° Southeast 266 306 19,800 -1,091 Descending Los Center
Thu 03:42:03 AM 36.3917 -116.1681 132° Southeast 282 325 18,700 -1,440 Descending Los Center
Thu 03:42:43 AM 36.3481 -116.1081 132° Southeast 287 330 17,400 -1,860 Descending Los Center
Thu 03:43:43 AM 36.2911 -116.0222 129° Southeast 306 352 15,600 -1,551 Descending Los Center
Thu 03:44:12 AM 36.2619 -115.9886 137° Southeast 300 345 15,100 -792 Descending Los Center
Thu 03:44:36 AM 36.2408 -115.9606 133° Southeast 298 343 14,900 -141 Descending Los Center
Thu 03:45:37 AM 36.1903 -115.8839 129° Southeast 271 312 14,900 -541 Level Los Center
Thu 03:46:38 AM 36.1619 -115.8000 113° Southeast 275 316 13,800 -1,140 Descending Los Center
Thu 03:47:38 AM 36.1286 -115.7147 116° Southeast 277 319 12,600 -1,190 Descending Los Center
Thu 03:48:39 AM 36.0986 -115.6236 112° Southeast 274 315 11,400 -1,131 Descending Los Center
Thu 03:49:40 AM 36.1097 -115.5347 81° East 263 303 10,300 -942 Descending Los Center
Thu 03:50:40 AM 36.1219 -115.4511 80° East 252 290 9,500 -893 Descending Los Center
Thu 03:51:41 AM 36.1372 -115.3717 77° East 237 273 8,500 -1,240 Descending Los Center
Thu 03:52:41 AM 36.1469 -115.2967 81° East 214 246 7,000 -1,438 Descending Los Center
Thu 03:53:42 AM 36.1558 -115.2272 81° East 195 224 5,600 -1,574 Descending Los Center
Thu 03:54:43 AM 36.1622 -115.1664 83° East 173 199 3,800 -1,339 Descending Los Center
Thu 03:55:43 AM 36.1358 -115.1353 136° Southeast 155 178 2,900 -774 Descending Los Center
Thu 03:56:47 AM 36.1031 -115.1536 204° Southwest 153 176 2,200 -656 Descending Los Center
Thu 03:58:00 AM 36.0801 -115.1523 284° West  Level Estimated
Thu 04:05:00 AM 36.0801 -115.1523 284° West  Level Estimated

Login

Don't have an account? Register now (free) for customized features, flight alerts, and more!